Eurocargo Venezia — IBKS — position and weather

sailwx.info

Track history (hours):
 
Tides and Currents Weather Stations Pressure Air Temp Water Temp Dewpoint Dewpoint Depression Visibility Wind Speed Wind Dir Waves Ship Positions

Eurocargo Venezia

Last reported at 2014-Nov-23 15:17 UTC. Time now 2014-Nov-23 20:12 UTC.
Position N 39°41' E 013°58'.

Length 200 m; draft 7.5 m.

Type: Ship (hazmat cat A). MMSI: 247297200.

Date/timePositionNaut miles runAvg speedWind from/ knotsBaromVisibWave heightAir tempDewpointWater temp
2014-Nov-23 15:17N 39°41' E 013°58'27717.6
2014-Nov-22 23:33N 43°09' E 009°55'1717.3
2014-Nov-22 22:33N 43°25' E 009°44'1717.4
2014-Nov-22 21:33N 43°40' E 009°31'1717.4
2014-Nov-22 20:33N 43°54' E 009°19'1716.8
2014-Nov-22 19:33N 44°09' E 009°06'1616.2
2014-Nov-22 18:33N 44°23' E 008°57'3 2.2
2014-Nov-22 17:24N 44°24' E 008°53'0 0.0
2014-Nov-22 16:30N 44°24' E 008°53'0 0.0
2014-Nov-22 15:33N 44°24' E 008°53'0 0.0
2014-Nov-22 14:33N 44°24' E 008°53'0 0.0
2014-Nov-22 13:33N 44°24' E 008°53'0 0.0
2014-Nov-22 12:30N 44°24' E 008°53'0 0.0
2014-Nov-22 11:33N 44°24' E 008°53'0 0.0
2014-Nov-22 10:33N 44°24' E 008°53'0 0.0
2014-Nov-22 09:33N 44°24' E 008°53'0 0.0
2014-Nov-22 08:33N 44°24' E 008°53'1 1.0
2014-Nov-22 07:33N 44°24' E 008°55'10 9.6
2014-Nov-22 06:33N 44°16' E 009°02'1818.4
2014-Nov-22 05:34N 44°00' E 009°15'1918.8
2014-Nov-22 04:34N 43°44' E 009°28'1919.3
2014-Nov-22 03:34N 43°28' E 009°42'1919.1
2014-Nov-22 02:33N 43°11' E 009°55'3918.1
2014-Nov-22 00:26N 42°35' E 010°15'33618.5
2014-Nov-21 06:16N 38°34' E 015°23'149 2.9
2014-Nov-19 02:30N 40°27' E 013°16'20417.9
2014-Nov-18 15:05N 43°05' E 010°23'917.6
2014-Nov-18 14:34N 43°13' E 010°19'1716.9
2014-Nov-18 13:34N 43°29' E 010°12'7 6.8
2014-Nov-18 12:31N 43°35' E 010°18'0 0.0
2014-Nov-18 11:31N 43°35' E 010°18'0 0.0
2014-Nov-18 10:31N 43°35' E 010°18'0 0.0
2014-Nov-18 09:31N 43°35' E 010°18'0 0.0
2014-Nov-18 08:31N 43°35' E 010°18'0 0.0
2014-Nov-18 07:31N 43°35' E 010°18'1 0.9
2014-Nov-18 06:33N 43°34' E 010°18'5 4.7
2014-Nov-18 05:33N 43°31' E 010°14'4 3.5
2014-Nov-18 04:33N 43°30' E 010°09'1515.4
2014-Nov-18 03:33N 43°36' E 009°50'1615.9
2014-Nov-18 02:33N 43°48' E 009°36'1615.7
2014-Nov-18 01:33N 44°00' E 009°22'1615.9
2014-Nov-18 00:33N 44°12' E 009°07'1414.4
2014-Nov-17 23:33N 44°24' E 008°55'1 1.3
2014-Nov-17 22:33N 44°24' E 008°53'0 0.0
2014-Nov-17 21:33N 44°24' E 008°53'0 0.0
2014-Nov-17 20:33N 44°24' E 008°53'0 0.0
2014-Nov-17 19:33N 44°24' E 008°53'0 0.0
2014-Nov-17 18:33N 44°24' E 008°53'0 0.0
2014-Nov-17 17:33N 44°24' E 008°53'0 0.0
2014-Nov-17 16:33N 44°24' E 008°53'0 0.0
2014-Nov-17 15:33N 44°24' E 008°53'0 0.0
2014-Nov-17 14:33N 44°24' E 008°53'0 0.0
2014-Nov-17 13:32N 44°24' E 008°53'0 0.0
2014-Nov-17 12:33N 44°24' E 008°53'0 0.0
2014-Nov-17 11:33N 44°24' E 008°53'3 3.1
2014-Nov-17 10:33N 44°23' E 008°57'1414.4
2014-Nov-17 09:33N 44°10' E 009°07'1717.0
2014-Nov-17 08:34N 43°56' E 009°19'1716.9
2014-Nov-17 07:33N 43°41' E 009°30'1717.3
2014-Nov-17 06:33N 43°26' E 009°43'1717.3
2014-Nov-17 05:34N 43°11' E 009°54'3817.0
2014-Nov-17 03:18N 42°36' E 010°16'17217.6
2014-Nov-16 17:33N 40°56' E 013°23'1717.0
2014-Nov-16 16:34N 40°44' E 013°38'1817.5
2014-Nov-16 15:33N 40°29' E 013°52'14817.6
2014-Nov-16 07:09N 38°26' E 015°38'1313.4
2014-Nov-16 06:13N 38°13' E 015°37'9 0.2
2014-Nov-14 11:25N 38°22' E 015°36'  
Track history (hours):
 
Tides and Currents Weather Stations Pressure Air Temp Water Temp Dewpoint Dewpoint Depression Visibility Wind Speed Wind Dir Waves Ship Positions

Eurocargo Venezia

Last reported at 2014-Nov-23 15:17 UTC. Time now 2014-Nov-23 20:12 UTC.
Position N 39°41' E 013°58'.

Length 200 m; draft 7.5 m.

Type: Ship (hazmat cat A). MMSI: 247297200.

Date/timePositionNaut miles runAvg speedWind from/ knotsBaromVisibWave heightAir tempDewpointWater temp
2014-Nov-23 15:17N 39°41' E 013°58'27717.6
2014-Nov-22 23:33N 43°09' E 009°55'1717.3
2014-Nov-22 22:33N 43°25' E 009°44'1717.4
2014-Nov-22 21:33N 43°40' E 009°31'1717.4
2014-Nov-22 20:33N 43°54' E 009°19'1716.8
2014-Nov-22 19:33N 44°09' E 009°06'1616.2
2014-Nov-22 18:33N 44°23' E 008°57'3 2.2
2014-Nov-22 17:24N 44°24' E 008°53'0 0.0
2014-Nov-22 16:30N 44°24' E 008°53'0 0.0
2014-Nov-22 15:33N 44°24' E 008°53'0 0.0
2014-Nov-22 14:33N 44°24' E 008°53'0 0.0
2014-Nov-22 13:33N 44°24' E 008°53'0 0.0
2014-Nov-22 12:30N 44°24' E 008°53'0 0.0
2014-Nov-22 11:33N 44°24' E 008°53'0 0.0
2014-Nov-22 10:33N 44°24' E 008°53'0 0.0
2014-Nov-22 09:33N 44°24' E 008°53'0 0.0
2014-Nov-22 08:33N 44°24' E 008°53'1 1.0
2014-Nov-22 07:33N 44°24' E 008°55'10 9.6
2014-Nov-22 06:33N 44°16' E 009°02'1818.4
2014-Nov-22 05:34N 44°00' E 009°15'1918.8
2014-Nov-22 04:34N 43°44' E 009°28'1919.3
2014-Nov-22 03:34N 43°28' E 009°42'1919.1
2014-Nov-22 02:33N 43°11' E 009°55'3918.1
2014-Nov-22 00:26N 42°35' E 010°15'33618.5
2014-Nov-21 06:16N 38°34' E 015°23'149 2.9
2014-Nov-19 02:30N 40°27' E 013°16'20417.9
2014-Nov-18 15:05N 43°05' E 010°23'917.6
2014-Nov-18 14:34N 43°13' E 010°19'1716.9
2014-Nov-18 13:34N 43°29' E 010°12'7 6.8
2014-Nov-18 12:31N 43°35' E 010°18'0 0.0
2014-Nov-18 11:31N 43°35' E 010°18'0 0.0
2014-Nov-18 10:31N 43°35' E 010°18'0 0.0
2014-Nov-18 09:31N 43°35' E 010°18'0 0.0
2014-Nov-18 08:31N 43°35' E 010°18'0 0.0
2014-Nov-18 07:31N 43°35' E 010°18'1 0.9
2014-Nov-18 06:33N 43°34' E 010°18'5 4.7
2014-Nov-18 05:33N 43°31' E 010°14'4 3.5
2014-Nov-18 04:33N 43°30' E 010°09'1515.4
2014-Nov-18 03:33N 43°36' E 009°50'1615.9
2014-Nov-18 02:33N 43°48' E 009°36'1615.7
2014-Nov-18 01:33N 44°00' E 009°22'1615.9
2014-Nov-18 00:33N 44°12' E 009°07'1414.4
2014-Nov-17 23:33N 44°24' E 008°55'1 1.3
2014-Nov-17 22:33N 44°24' E 008°53'0 0.0
2014-Nov-17 21:33N 44°24' E 008°53'0 0.0
2014-Nov-17 20:33N 44°24' E 008°53'0 0.0
2014-Nov-17 19:33N 44°24' E 008°53'0 0.0
2014-Nov-17 18:33N 44°24' E 008°53'0 0.0
2014-Nov-17 17:33N 44°24' E 008°53'0 0.0
2014-Nov-17 16:33N 44°24' E 008°53'0 0.0
2014-Nov-17 15:33N 44°24' E 008°53'0 0.0
2014-Nov-17 14:33N 44°24' E 008°53'0 0.0
2014-Nov-17 13:32N 44°24' E 008°53'0 0.0
2014-Nov-17 12:33N 44°24' E 008°53'0 0.0
2014-Nov-17 11:33N 44°24' E 008°53'3 3.1
2014-Nov-17 10:33N 44°23' E 008°57'1414.4
2014-Nov-17 09:33N 44°10' E 009°07'1717.0
2014-Nov-17 08:34N 43°56' E 009°19'1716.9
2014-Nov-17 07:33N 43°41' E 009°30'1717.3
2014-Nov-17 06:33N 43°26' E 009°43'1717.3
2014-Nov-17 05:34N 43°11' E 009°54'3817.0
2014-Nov-17 03:18N 42°36' E 010°16'17217.6
2014-Nov-16 17:33N 40°56' E 013°23'1717.0
2014-Nov-16 16:34N 40°44' E 013°38'1817.5
2014-Nov-16 15:33N 40°29' E 013°52'14817.6
2014-Nov-16 07:09N 38°26' E 015°38'1313.4
2014-Nov-16 06:13N 38°13' E 015°37'9 0.2
2014-Nov-14 11:25N 38°22' E 015°36'  

Dump ship's entire track history